createdAt,value
2019-01-21T00:00:12.755Z,0.00
2019-01-21T00:01:12.722Z,0.00
2019-01-21T00:02:12.723Z,0.00
2019-01-21T00:03:14.743Z,0.00
2019-01-21T00:04:12.688Z,0.00
2019-01-21T00:05:12.704Z,0.00
2019-01-21T00:06:12.670Z,0.00
2019-01-21T00:07:12.663Z,0.00
2019-01-21T00:08:12.642Z,0.00
2019-01-21T00:09:12.634Z,0.00
2019-01-21T00:10:12.670Z,0.00
2019-01-21T00:11:12.614Z,0.00
2019-01-21T00:12:12.621Z,0.00
2019-01-21T00:13:12.590Z,0.00
2019-01-21T00:14:12.580Z,0.00
2019-01-21T00:15:12.575Z,0.00
2019-01-21T00:16:12.580Z,0.00
2019-01-21T00:17:12.551Z,0.00
2019-01-21T00:18:12.541Z,0.00
2019-01-21T00:19:12.583Z,0.00
2019-01-21T00:20:12.517Z,0.00
2019-01-21T00:21:12.521Z,0.00
2019-01-21T00:22:12.509Z,0.00
2019-01-21T00:23:12.480Z,0.00
2019-01-21T00:24:12.491Z,0.00
2019-01-21T00:25:12.479Z,0.00
2019-01-21T00:26:12.473Z,0.00
2019-01-21T00:27:12.432Z,0.00
2019-01-21T00:28:12.452Z,0.00
2019-01-21T00:29:12.421Z,0.00
2019-01-21T00:30:12.432Z,0.00
2019-01-21T00:31:12.431Z,0.00
2019-01-21T00:32:12.375Z,0.00
2019-01-21T00:33:12.379Z,0.00
2019-01-21T00:34:12.358Z,0.00
2019-01-21T00:35:12.359Z,0.00
2019-01-21T00:36:12.368Z,0.00
2019-01-21T00:37:12.337Z,0.00
2019-01-21T00:38:12.328Z,0.00
2019-01-21T00:39:12.305Z,0.00
2019-01-21T00:40:12.298Z,0.00
2019-01-21T00:41:12.289Z,0.00
2019-01-21T00:42:12.293Z,0.00
2019-01-21T00:43:12.277Z,0.00
2019-01-21T00:44:12.247Z,0.00
2019-01-21T00:45:12.317Z,0.00
2019-01-21T00:46:12.238Z,0.00
2019-01-21T00:47:12.248Z,0.00
2019-01-21T00:48:12.216Z,0.00
2019-01-21T00:49:12.202Z,0.00
2019-01-21T00:50:12.201Z,0.00
2019-01-21T00:51:12.182Z,0.00
2019-01-21T00:52:12.175Z,0.00
2019-01-21T00:53:12.160Z,0.00
2019-01-21T00:54:12.146Z,0.00
2019-01-21T00:55:12.148Z,0.00
2019-01-21T00:56:12.119Z,0.00
2019-01-21T00:57:12.124Z,0.00
2019-01-21T00:58:12.094Z,0.00
2019-01-21T00:59:12.100Z,0.00
2019-01-21T01:00:12.076Z,0.00
2019-01-21T01:01:12.059Z,0.00
2019-01-21T01:02:12.069Z,0.00
2019-01-21T01:03:12.046Z,0.00
2019-01-21T01:04:12.033Z,0.00
2019-01-21T01:05:12.037Z,0.00
2019-01-21T01:06:12.018Z,0.00
2019-01-21T01:07:12.028Z,0.00
2019-01-21T01:08:12.003Z,0.00
2019-01-21T01:09:11.973Z,0.00
2019-01-21T01:10:11.965Z,0.00
2019-01-21T01:11:12.008Z,0.00
2019-01-21T01:12:11.944Z,0.00
2019-01-21T01:13:11.960Z,0.00
2019-01-21T01:14:11.928Z,0.00
2019-01-21T01:15:11.907Z,0.00
2019-01-21T01:16:11.914Z,0.00
2019-01-21T01:17:11.890Z,0.00
2019-01-21T01:18:11.898Z,0.00
2019-01-21T01:19:11.883Z,0.00
2019-01-21T01:20:11.862Z,0.00
2019-01-21T01:21:11.853Z,0.00
2019-01-21T01:22:11.858Z,0.00
2019-01-21T01:23:11.841Z,0.00
2019-01-21T01:24:11.819Z,0.00
2019-01-21T01:25:11.813Z,0.00
2019-01-21T01:26:11.794Z,0.00
2019-01-21T01:27:11.788Z,0.00
2019-01-21T01:28:11.800Z,0.00
2019-01-21T01:29:11.755Z,0.00
2019-01-21T01:30:11.751Z,0.00
2019-01-21T01:31:11.741Z,0.00
2019-01-21T01:32:11.758Z,0.00
2019-01-21T01:33:11.743Z,0.00
2019-01-21T01:34:11.709Z,0.00
2019-01-21T01:35:11.691Z,0.00
2019-01-21T01:36:11.683Z,0.00
2019-01-21T01:37:11.677Z,0.00
2019-01-21T01:38:11.661Z,0.00
2019-01-21T01:39:11.669Z,0.00
2019-01-21T01:40:11.637Z,0.00
2019-01-21T01:41:11.622Z,0.00
2019-01-21T01:42:11.625Z,0.00
2019-01-21T01:43:11.605Z,0.00
2019-01-21T01:44:11.614Z,0.00
2019-01-21T01:45:11.581Z,0.00
2019-01-21T01:46:11.577Z,0.00
2019-01-21T01:47:11.566Z,0.00
2019-01-21T01:48:11.554Z,0.00
2019-01-21T01:49:11.565Z,0.00
2019-01-21T01:50:11.532Z,0.00
2019-01-21T01:51:11.522Z,0.00
2019-01-21T01:52:11.516Z,0.00
2019-01-21T01:53:11.490Z,0.00
2019-01-21T01:54:11.519Z,0.00
2019-01-21T01:55:11.479Z,0.00
2019-01-21T01:56:11.470Z,0.00
2019-01-21T01:57:11.466Z,0.00
2019-01-21T01:58:11.440Z,0.00
2019-01-21T01:59:11.459Z,0.00
2019-01-21T02:00:11.424Z,0.00
2019-01-21T02:01:11.415Z,0.00
2019-01-21T02:02:11.417Z,0.00
2019-01-21T02:03:11.396Z,0.00
2019-01-21T02:04:11.403Z,0.00
2019-01-21T02:05:11.385Z,0.00
2019-01-21T02:06:11.364Z,0.00
2019-01-21T02:07:11.347Z,0.00
2019-01-21T02:08:11.332Z,0.00
2019-01-21T02:09:11.345Z,0.00
2019-01-21T02:10:11.320Z,0.00
2019-01-21T02:11:11.306Z,0.00
2019-01-21T02:12:11.292Z,0.00
2019-01-21T02:13:11.274Z,0.00
2019-01-21T02:14:11.268Z,0.00
2019-01-21T02:15:11.304Z,0.00
2019-01-21T02:16:11.262Z,0.00
2019-01-21T02:17:11.239Z,0.00
2019-01-21T02:18:11.248Z,0.00
2019-01-21T02:19:11.212Z,0.00
2019-01-21T02:20:11.225Z,0.00
2019-01-21T02:21:11.195Z,0.00
2019-01-21T02:22:11.203Z,0.00
2019-01-21T02:23:11.168Z,0.00
2019-01-21T02:24:11.242Z,0.00
2019-01-21T02:25:11.192Z,0.00
2019-01-21T02:26:11.164Z,0.00
2019-01-21T02:27:11.139Z,0.00
2019-01-21T02:28:11.121Z,0.00
2019-01-21T02:29:11.116Z,0.00
2019-01-21T02:30:11.114Z,0.00
2019-01-21T02:31:11.120Z,0.00
2019-01-21T02:32:11.076Z,0.00
2019-01-21T02:33:11.080Z,0.00
2019-01-21T02:34:11.052Z,0.00
2019-01-21T02:35:11.046Z,0.00
2019-01-21T02:36:11.051Z,0.00
2019-01-21T02:37:11.020Z,0.00
2019-01-21T02:38:11.006Z,0.00
2019-01-21T02:39:11.001Z,0.00
2019-01-21T02:40:10.997Z,0.00
2019-01-21T02:41:11.002Z,0.00
2019-01-21T02:42:10.961Z,0.00
2019-01-21T02:43:10.968Z,0.00
2019-01-21T02:44:10.942Z,0.00
2019-01-21T02:45:10.954Z,0.00
2019-01-21T02:46:10.951Z,0.00
2019-01-21T02:47:10.910Z,0.00
2019-01-21T02:48:10.896Z,0.00
2019-01-21T02:49:10.885Z,0.00
2019-01-21T02:50:10.895Z,0.00
2019-01-21T02:51:10.886Z,0.00
2019-01-21T02:52:10.873Z,0.00
2019-01-21T02:53:10.860Z,0.00
2019-01-21T02:54:10.840Z,0.00
2019-01-21T02:55:10.822Z,0.00
2019-01-21T02:56:10.822Z,0.00
2019-01-21T02:57:10.805Z,0.00
2019-01-21T02:58:10.801Z,0.00
2019-01-21T02:59:10.794Z,0.00
2019-01-21T03:00:10.774Z,0.00
2019-01-21T03:01:10.794Z,0.00
2019-01-21T03:02:10.747Z,0.00
2019-01-21T03:03:10.744Z,0.00
2019-01-21T03:04:10.728Z,0.00
2019-01-21T03:05:10.711Z,0.00
2019-01-21T03:06:10.707Z,0.00
2019-01-21T03:07:10.721Z,0.00
2019-01-21T03:08:10.679Z,0.00
2019-01-21T03:09:10.674Z,0.00
2019-01-21T03:10:10.661Z,0.00
2019-01-21T03:11:10.643Z,0.00
2019-01-21T03:12:10.662Z,0.00
2019-01-21T03:13:10.627Z,0.00
2019-01-21T03:14:10.621Z,0.00
2019-01-21T03:15:10.610Z,0.00
2019-01-21T03:16:10.604Z,0.00
2019-01-21T03:17:10.604Z,0.00
2019-01-21T03:18:10.581Z,0.00
2019-01-21T03:19:10.567Z,0.00
2019-01-21T03:20:10.577Z,0.00
2019-01-21T03:21:10.537Z,0.00
2019-01-21T03:22:10.572Z,0.00
2019-01-21T03:23:10.519Z,0.00
2019-01-21T03:24:10.538Z,0.00
2019-01-21T03:25:10.499Z,0.00
2019-01-21T03:26:10.510Z,0.00
2019-01-21T03:27:10.484Z,0.00
2019-01-21T03:28:10.470Z,0.00
2019-01-21T03:29:10.454Z,0.00
2019-01-21T03:30:10.460Z,0.00
2019-01-21T03:31:10.437Z,0.00
2019-01-21T03:32:10.457Z,0.00
2019-01-21T03:33:10.409Z,0.00
2019-01-21T03:34:10.408Z,0.00
2019-01-21T03:35:10.401Z,0.00
2019-01-21T03:36:10.383Z,0.00
2019-01-21T03:37:10.403Z,0.00
2019-01-21T03:38:10.354Z,0.00
2019-01-21T03:39:10.345Z,0.00
2019-01-21T03:40:10.349Z,0.00
2019-01-21T03:41:10.334Z,0.00
2019-01-21T03:42:10.337Z,0.00
2019-01-21T03:43:10.307Z,0.00
2019-01-21T03:44:10.308Z,0.00
2019-01-21T03:45:10.278Z,0.00
2019-01-21T03:46:10.267Z,0.00
2019-01-21T03:47:10.274Z,0.00
2019-01-21T03:48:16.530Z,0.00
2019-01-21T03:49:11.265Z,0.00
2019-01-21T03:50:10.249Z,0.00
2019-01-21T03:51:10.216Z,0.00
2019-01-21T03:52:10.225Z,0.00
2019-01-21T03:53:10.213Z,0.00
2019-01-21T03:54:10.187Z,0.00
2019-01-21T03:55:10.195Z,0.00
2019-01-21T03:56:10.182Z,0.00
2019-01-21T03:57:10.158Z,0.00
2019-01-21T03:58:10.154Z,0.00
2019-01-21T03:59:10.134Z,0.00
2019-01-21T04:00:10.124Z,0.00
2019-01-21T04:01:10.109Z,0.00
2019-01-21T04:02:10.122Z,0.00
2019-01-21T04:03:10.085Z,0.00
2019-01-21T04:04:10.088Z,0.00
2019-01-21T04:05:10.055Z,0.00
2019-01-21T04:06:10.056Z,0.00
2019-01-21T04:07:10.042Z,0.00
2019-01-21T04:08:10.053Z,0.00
2019-01-21T04:09:10.027Z,0.00
2019-01-21T04:10:10.010Z,0.00
2019-01-21T04:11:10.002Z,0.00
2019-01-21T04:12:09.987Z,0.00
2019-01-21T04:13:10.002Z,0.00
2019-01-21T04:14:09.966Z,0.00
2019-01-21T04:15:09.968Z,0.00
2019-01-21T04:16:09.937Z,0.00
2019-01-21T04:17:09.936Z,0.00
2019-01-21T04:18:09.944Z,0.00
2019-01-21T04:19:09.911Z,0.00
2019-01-21T04:20:09.904Z,0.00
2019-01-21T04:21:09.890Z,0.00
2019-01-21T04:22:09.881Z,0.00
2019-01-21T04:23:09.886Z,0.00
2019-01-21T04:24:09.869Z,0.00
2019-01-21T04:25:09.852Z,0.00
2019-01-21T04:26:09.835Z,0.00
2019-01-21T04:27:09.863Z,0.00
2019-01-21T04:28:09.825Z,0.00
2019-01-21T04:29:09.809Z,0.00
2019-01-21T04:30:09.803Z,0.00
2019-01-21T04:31:09.793Z,0.00
2019-01-21T04:32:09.780Z,0.00
2019-01-21T04:33:09.809Z,0.00
2019-01-21T04:34:09.765Z,0.00
2019-01-21T04:35:09.737Z,0.00
2019-01-21T04:36:09.723Z,0.00
2019-01-21T04:37:09.711Z,0.00
2019-01-21T04:38:09.729Z,0.00
2019-01-21T04:39:09.710Z,0.00
2019-01-21T04:40:09.714Z,0.00
2019-01-21T04:41:09.671Z,0.00
2019-01-21T04:42:09.658Z,0.00
2019-01-21T04:43:09.683Z,0.00
2019-01-21T04:44:09.636Z,0.00
2019-01-21T04:45:09.638Z,0.00
2019-01-21T04:46:09.613Z,0.00
2019-01-21T04:47:09.619Z,0.00
2019-01-21T04:48:09.595Z,0.00
2019-01-21T04:49:09.601Z,0.00
2019-01-21T04:50:09.592Z,0.00
2019-01-21T04:51:09.573Z,0.00
2019-01-21T04:52:09.543Z,0.00
2019-01-21T04:53:09.544Z,0.00
2019-01-21T04:54:09.569Z,0.00
2019-01-21T04:55:09.533Z,0.00
2019-01-21T04:56:09.509Z,0.00
2019-01-21T04:57:09.511Z,0.00
2019-01-21T04:58:09.479Z,0.00
2019-01-21T04:59:09.496Z,0.00
2019-01-21T05:00:09.463Z,0.00
2019-01-21T05:01:09.464Z,0.00
2019-01-21T05:02:09.439Z,0.00
2019-01-21T05:03:09.436Z,0.00
2019-01-21T05:04:09.453Z,0.00
2019-01-21T05:05:09.403Z,0.00
2019-01-21T05:06:09.403Z,0.00
2019-01-21T05:07:09.389Z,0.00
2019-01-21T05:08:09.393Z,0.00
2019-01-21T05:09:09.389Z,0.00
2019-01-21T05:10:09.352Z,0.00
2019-01-21T05:11:09.354Z,0.00
2019-01-21T05:12:09.348Z,0.00
2019-01-21T05:13:09.317Z,0.00
2019-01-21T05:14:09.326Z,0.00
2019-01-21T05:15:09.322Z,0.00
2019-01-21T05:16:09.290Z,0.00
2019-01-21T05:17:09.290Z,0.00
2019-01-21T05:18:09.264Z,0.00
2019-01-21T05:19:09.309Z,0.00
2019-01-21T05:20:09.405Z,0.00
2019-01-21T05:21:09.232Z,0.00
2019-01-21T05:22:09.231Z,0.00
2019-01-21T05:23:09.216Z,0.00
2019-01-21T05:24:09.244Z,0.00
2019-01-21T05:25:09.229Z,0.00
2019-01-21T05:26:09.192Z,0.00
2019-01-21T05:27:09.171Z,0.00
2019-01-21T05:28:09.166Z,0.00
2019-01-21T05:29:09.171Z,0.00
2019-01-21T05:30:09.174Z,0.00
2019-01-21T05:31:09.148Z,0.00
2019-01-21T05:32:09.194Z,0.00
2019-01-21T05:33:09.110Z,0.00
2019-01-21T05:34:09.120Z,0.00
2019-01-21T05:35:09.076Z,0.00
2019-01-21T05:36:09.077Z,0.00
2019-01-21T05:37:09.070Z,0.00
2019-01-21T05:38:09.066Z,0.00
2019-01-21T05:39:09.049Z,0.00
2019-01-21T05:40:09.027Z,0.00
2019-01-21T05:41:09.015Z,0.00
2019-01-21T05:42:09.019Z,0.00
2019-01-21T05:43:08.983Z,0.00
2019-01-21T05:44:09.019Z,0.00
2019-01-21T05:45:08.968Z,0.00
2019-01-21T05:46:08.970Z,0.00
2019-01-21T05:47:08.974Z,0.00
2019-01-21T05:48:08.962Z,0.00
2019-01-21T05:49:08.929Z,0.00
2019-01-21T05:50:08.938Z,0.00
2019-01-21T05:51:08.929Z,0.00
2019-01-21T05:52:08.910Z,0.00
2019-01-21T05:53:08.894Z,0.00
2019-01-21T05:54:08.901Z,0.00
2019-01-21T05:55:08.897Z,0.00
2019-01-21T05:56:08.859Z,0.00
2019-01-21T05:57:08.854Z,0.00
2019-01-21T05:58:08.827Z,0.00
2019-01-21T05:59:08.823Z,0.00
2019-01-21T06:00:08.816Z,0.00
2019-01-21T06:01:08.807Z,0.00
2019-01-21T06:02:08.783Z,0.00
2019-01-21T06:03:08.788Z,0.00
2019-01-21T06:04:08.767Z,0.00
2019-01-21T06:05:08.822Z,0.00
2019-01-21T06:06:08.749Z,0.00
2019-01-21T06:07:08.739Z,0.00
2019-01-21T06:08:08.738Z,0.00
2019-01-21T06:09:08.723Z,0.00
2019-01-21T06:10:08.727Z,0.00
2019-01-21T06:11:08.703Z,0.00
2019-01-21T06:12:08.683Z,0.00
2019-01-21T06:13:08.669Z,0.00
2019-01-21T06:14:08.726Z,0.00
2019-01-21T06:15:08.686Z,0.00
2019-01-21T06:16:08.646Z,0.00
2019-01-21T06:17:08.625Z,0.00
2019-01-21T06:18:08.607Z,0.00
2019-01-21T06:19:09.475Z,0.00
2019-01-21T06:20:08.597Z,0.00
2019-01-21T06:21:08.599Z,0.00
2019-01-21T06:22:08.573Z,0.00
2019-01-21T06:23:08.565Z,0.00
2019-01-21T06:24:08.567Z,0.00
2019-01-21T06:25:08.555Z,0.00
2019-01-21T06:26:08.543Z,0.00
2019-01-21T06:27:08.513Z,0.00
2019-01-21T06:28:08.682Z,0.00
2019-01-21T06:29:08.504Z,0.00
2019-01-21T06:30:08.486Z,0.00
2019-01-21T06:31:08.483Z,0.00
2019-01-21T06:32:08.457Z,0.00
2019-01-21T06:33:08.453Z,0.00
2019-01-21T06:34:08.456Z,0.00
2019-01-21T06:35:08.432Z,0.00
2019-01-21T06:36:08.494Z,0.00
2019-01-21T06:37:08.412Z,0.00
2019-01-21T06:38:08.430Z,0.00
2019-01-21T06:39:08.396Z,0.00
2019-01-21T06:40:08.398Z,0.00
2019-01-21T06:41:08.380Z,0.00
2019-01-21T06:42:08.366Z,0.00
2019-01-21T06:43:08.352Z,0.00
2019-01-21T06:44:08.339Z,0.00
2019-01-21T06:45:08.366Z,0.00
2019-01-21T06:46:08.347Z,0.00
2019-01-21T06:47:08.318Z,0.00
2019-01-21T06:48:08.296Z,0.00
2019-01-21T06:49:08.278Z,0.00
2019-01-21T06:50:08.553Z,0.00
2019-01-21T06:51:08.260Z,0.00
2019-01-21T06:52:08.291Z,0.00
2019-01-21T06:53:08.293Z,0.00
2019-01-21T06:54:08.224Z,0.00
2019-01-21T06:55:08.219Z,0.00
2019-01-21T06:56:08.194Z,0.00
2019-01-21T06:57:08.204Z,0.00
2019-01-21T06:58:08.191Z,0.00
2019-01-21T06:59:08.177Z,0.00
2019-01-21T07:00:08.153Z,0.00
2019-01-21T07:01:08.141Z,0.00
2019-01-21T07:02:08.155Z,0.00
2019-01-21T07:03:08.125Z,0.00
2019-01-21T07:04:08.115Z,0.00
2019-01-21T07:05:08.118Z,0.00
2019-01-21T07:06:08.095Z,0.00
2019-01-21T07:07:08.101Z,0.00
2019-01-21T07:08:08.069Z,0.00
2019-01-21T07:09:08.063Z,0.00
2019-01-21T07:10:08.039Z,0.00
2019-01-21T07:11:08.032Z,0.00
2019-01-21T07:12:08.039Z,0.00
2019-01-21T07:13:08.001Z,0.00
2019-01-21T07:14:07.997Z,0.00
2019-01-21T07:15:07.985Z,0.00
2019-01-21T07:16:07.983Z,0.00
2019-01-21T07:17:07.991Z,0.00
2019-01-21T07:18:07.967Z,0.00
2019-01-21T07:19:11.064Z,0.00
2019-01-21T07:20:07.944Z,0.00
2019-01-21T07:21:07.924Z,0.00
2019-01-21T07:22:07.929Z,0.00
2019-01-21T07:23:07.929Z,0.00
2019-01-21T07:24:07.924Z,0.00
2019-01-21T07:25:07.884Z,0.00
2019-01-21T07:26:07.872Z,0.00
2019-01-21T07:27:07.855Z,0.00
2019-01-21T07:28:07.865Z,0.00
2019-01-21T07:29:07.862Z,0.00
2019-01-21T07:30:07.855Z,0.00
2019-01-21T07:31:07.812Z,0.00
2019-01-21T07:32:07.817Z,0.00
2019-01-21T07:33:07.823Z,0.00
2019-01-21T07:34:07.796Z,0.00
2019-01-21T07:35:07.769Z,0.00
2019-01-21T07:36:07.750Z,0.00
2019-01-21T07:37:07.778Z,0.00
2019-01-21T07:38:07.738Z,0.00
2019-01-21T07:39:07.742Z,0.00
2019-01-21T07:40:07.786Z,0.00
2019-01-21T07:41:07.720Z,0.00
2019-01-21T07:42:07.697Z,0.00
2019-01-21T07:43:07.681Z,0.00
2019-01-21T07:44:07.682Z,0.00
2019-01-21T07:45:07.664Z,0.00
2019-01-21T07:46:07.645Z,0.00
2019-01-21T07:47:07.644Z,0.00
2019-01-21T07:48:07.625Z,5.62
2019-01-21T07:49:07.645Z,5.62
2019-01-21T07:50:07.609Z,5.62
2019-01-21T07:51:07.588Z,5.62
2019-01-21T07:52:07.587Z,5.62
2019-01-21T07:53:07.612Z,5.62
2019-01-21T07:54:07.564Z,5.62
2019-01-21T07:55:07.563Z,5.62
2019-01-21T07:56:07.543Z,5.62
2019-01-21T07:57:07.524Z,5.62
2019-01-21T07:58:07.518Z,5.62
2019-01-21T07:59:07.513Z,5.62
2019-01-21T08:00:07.519Z,5.62
2019-01-21T08:01:07.492Z,5.62
2019-01-21T08:02:07.478Z,5.62
2019-01-21T08:03:07.484Z,5.62
2019-01-21T08:04:07.462Z,5.62
2019-01-21T08:05:07.457Z,11.25
2019-01-21T08:06:07.436Z,11.25
2019-01-21T08:07:07.424Z,11.25
2019-01-21T08:08:07.412Z,11.25
2019-01-21T08:09:07.396Z,11.25
2019-01-21T08:10:07.463Z,11.25
2019-01-21T08:11:07.382Z,11.25
2019-01-21T08:12:07.363Z,11.25
2019-01-21T08:13:07.347Z,11.25
2019-01-21T08:14:08.066Z,11.25
2019-01-21T08:15:07.332Z,11.25
2019-01-21T08:16:07.353Z,11.25
2019-01-21T08:17:07.317Z,11.25
2019-01-21T08:18:07.305Z,11.25
2019-01-21T08:19:07.310Z,11.25
2019-01-21T08:20:07.363Z,11.25
2019-01-21T08:21:07.284Z,11.25
2019-01-21T08:22:07.254Z,11.25
2019-01-21T08:23:07.252Z,11.25
2019-01-21T08:24:07.230Z,11.25
2019-01-21T08:25:07.228Z,11.25
2019-01-21T08:26:07.233Z,11.25
2019-01-21T08:27:07.207Z,11.25
2019-01-21T08:28:07.189Z,16.88
2019-01-21T08:29:07.188Z,16.88
2019-01-21T08:30:07.171Z,11.25
2019-01-21T08:31:07.172Z,11.25
2019-01-21T08:32:07.158Z,11.25
2019-01-21T08:33:07.139Z,16.88
2019-01-21T08:34:07.126Z,16.88
2019-01-21T08:35:07.215Z,16.88
2019-01-21T08:36:07.313Z,16.88
2019-01-21T08:37:07.103Z,16.88
2019-01-21T08:38:07.145Z,22.50
2019-01-21T08:39:07.092Z,22.50
2019-01-21T08:40:07.077Z,22.50
2019-01-21T08:41:07.106Z,22.50
2019-01-21T08:42:07.064Z,16.88
2019-01-21T08:43:07.025Z,22.50
2019-01-21T08:44:07.101Z,22.50
2019-01-21T08:45:07.025Z,28.12
2019-01-21T08:46:06.992Z,28.12
2019-01-21T08:47:07.005Z,28.12
2019-01-21T08:48:06.982Z,28.12
2019-01-21T08:49:06.963Z,22.50
2019-01-21T08:50:06.953Z,22.50
2019-01-21T08:51:06.939Z,22.50
2019-01-21T08:52:06.941Z,16.88
2019-01-21T08:53:06.931Z,16.88
2019-01-21T08:54:06.912Z,22.50
2019-01-21T08:55:06.914Z,22.50
2019-01-21T08:56:06.885Z,22.50
2019-01-21T08:57:06.908Z,22.50
2019-01-21T08:58:06.861Z,22.50
2019-01-21T08:59:06.860Z,16.88
2019-01-21T09:00:06.858Z,16.88
2019-01-21T09:01:06.828Z,16.88
2019-01-21T09:02:06.847Z,22.50
2019-01-21T09:03:06.877Z,22.50
2019-01-21T09:04:06.796Z,22.50
2019-01-21T09:05:06.809Z,22.50
2019-01-21T09:06:06.813Z,22.50
2019-01-21T09:07:06.759Z,22.50
2019-01-21T09:08:06.779Z,22.50
2019-01-21T09:09:06.753Z,22.50
2019-01-21T09:10:06.744Z,22.50
2019-01-21T09:11:06.727Z,22.50
2019-01-21T09:12:06.727Z,22.50
2019-01-21T09:13:06.722Z,22.50
2019-01-21T09:14:06.691Z,22.50
2019-01-21T09:15:06.713Z,22.50
2019-01-21T09:16:06.671Z,22.50
2019-01-21T09:17:06.668Z,22.50
2019-01-21T09:18:06.678Z,22.50
2019-01-21T09:19:06.654Z,22.50
2019-01-21T09:20:10.679Z,22.50
2019-01-21T09:21:06.622Z,22.50
2019-01-21T09:22:06.645Z,22.50
2019-01-21T09:23:06.637Z,22.50
2019-01-21T09:24:06.590Z,22.50
2019-01-21T09:25:06.570Z,22.50
2019-01-21T09:26:06.576Z,22.50
2019-01-21T09:27:06.576Z,28.12
2019-01-21T09:28:06.549Z,28.12
2019-01-21T09:29:06.563Z,28.12
2019-01-21T09:30:06.512Z,28.12
2019-01-21T09:31:06.513Z,22.50
2019-01-21T09:32:06.512Z,22.50
2019-01-21T09:33:06.492Z,22.50
2019-01-21T09:34:06.494Z,22.50
2019-01-21T09:35:06.467Z,22.50
2019-01-21T09:36:06.449Z,22.50
2019-01-21T09:37:06.436Z,22.50
2019-01-21T09:38:06.429Z,22.50
2019-01-21T09:39:06.456Z,22.50
2019-01-21T09:40:06.424Z,16.88
2019-01-21T09:41:06.421Z,16.88
2019-01-21T09:42:06.384Z,16.88
2019-01-21T09:43:06.384Z,16.88
2019-01-21T09:44:06.360Z,16.88
2019-01-21T09:45:06.448Z,22.50
2019-01-21T09:46:06.394Z,22.50
2019-01-21T09:47:06.351Z,22.50
2019-01-21T09:48:06.319Z,22.50
2019-01-21T09:49:06.314Z,28.12
2019-01-21T09:50:06.319Z,28.12
2019-01-21T09:51:06.285Z,22.50
2019-01-21T09:52:06.280Z,22.50
2019-01-21T09:53:06.267Z,22.50
2019-01-21T09:54:06.261Z,22.50
2019-01-21T09:55:06.267Z,22.50
2019-01-21T09:56:06.231Z,22.50
2019-01-21T09:57:06.219Z,22.50
2019-01-21T09:58:06.216Z,22.50
2019-01-21T09:59:06.217Z,22.50
2019-01-21T10:00:06.226Z,22.50
2019-01-21T10:01:06.176Z,22.50
2019-01-21T10:02:06.183Z,22.50
2019-01-21T10:03:06.154Z,22.50
2019-01-21T10:04:06.153Z,22.50
2019-01-21T10:05:06.163Z,22.50
2019-01-21T10:06:06.117Z,28.12
2019-01-21T10:07:07.275Z,28.12
2019-01-21T10:08:06.115Z,33.75
2019-01-21T10:09:06.098Z,33.75
2019-01-21T10:10:06.102Z,33.75
2019-01-21T10:11:06.092Z,33.75
2019-01-21T10:12:06.078Z,33.75
2019-01-21T10:13:06.060Z,33.75
2019-01-21T10:14:06.040Z,28.12
2019-01-21T10:15:06.068Z,33.75
2019-01-21T10:16:06.007Z,33.75
2019-01-21T10:17:06.012Z,33.75
2019-01-21T10:18:05.992Z,28.12
2019-01-21T10:19:06.002Z,33.75
2019-01-21T10:20:05.967Z,33.75
2019-01-21T10:21:05.972Z,33.75
2019-01-21T10:22:05.948Z,33.75
2019-01-21T10:23:05.980Z,33.75
2019-01-21T10:24:05.932Z,33.75
2019-01-21T10:25:05.924Z,33.75
2019-01-21T10:26:05.968Z,33.75
2019-01-21T10:27:05.904Z,33.75
2019-01-21T10:28:05.888Z,39.38
2019-01-21T10:29:05.922Z,33.75
2019-01-21T10:30:05.874Z,28.12
2019-01-21T10:31:05.862Z,33.75
2019-01-21T10:32:05.848Z,33.75
2019-01-21T10:33:05.840Z,33.75
2019-01-21T10:34:05.811Z,33.75
2019-01-21T10:35:05.802Z,39.38
2019-01-21T10:36:05.802Z,39.38
2019-01-21T10:37:05.795Z,39.38
2019-01-21T10:38:05.768Z,39.38
2019-01-21T10:39:05.759Z,33.75
2019-01-21T10:40:08.001Z,39.38
2019-01-21T10:41:05.742Z,39.38
2019-01-21T10:42:05.752Z,39.38
2019-01-21T10:43:05.727Z,39.38
2019-01-21T10:44:05.716Z,39.38
2019-01-21T10:45:05.718Z,39.38
2019-01-21T10:46:05.690Z,39.38
2019-01-21T10:47:05.749Z,45.00
2019-01-21T10:48:05.668Z,39.38
2019-01-21T10:49:05.646Z,39.38
2019-01-21T10:50:05.638Z,45.00
2019-01-21T10:51:05.630Z,45.00
2019-01-21T10:52:05.635Z,45.00
2019-01-21T10:53:05.606Z,39.38
2019-01-21T10:54:05.606Z,39.38
2019-01-21T10:55:05.590Z,45.00
2019-01-21T10:56:05.590Z,45.00
2019-01-21T10:57:05.586Z,45.00
2019-01-21T10:58:05.565Z,50.62
2019-01-21T10:59:05.546Z,50.62
2019-01-21T11:00:05.540Z,50.62
2019-01-21T11:01:05.529Z,45.00
2019-01-21T11:02:05.533Z,45.00
2019-01-21T11:03:05.500Z,50.62
2019-01-21T11:04:05.492Z,45.00
2019-01-21T11:05:05.478Z,50.62
2019-01-21T11:06:05.462Z,50.62
2019-01-21T11:07:05.474Z,45.00
2019-01-21T11:08:05.446Z,50.62
2019-01-21T11:09:05.432Z,45.00
2019-01-21T11:10:05.431Z,45.00
2019-01-21T11:11:05.422Z,45.00
2019-01-21T11:12:05.429Z,45.00
2019-01-21T11:13:05.397Z,45.00
2019-01-21T11:14:05.386Z,50.62
2019-01-21T11:15:05.392Z,50.62
2019-01-21T11:16:05.383Z,50.62
2019-01-21T11:17:05.343Z,50.62
2019-01-21T11:18:05.350Z,50.62
2019-01-21T11:19:05.325Z,50.62
2019-01-21T11:20:05.331Z,50.62
2019-01-21T11:21:05.294Z,56.25
2019-01-21T11:22:05.300Z,56.25
2019-01-21T11:23:06.305Z,56.25
2019-01-21T11:24:05.264Z,50.62
2019-01-21T11:25:05.261Z,50.62
2019-01-21T11:26:05.261Z,50.62
2019-01-21T11:27:05.232Z,50.62
2019-01-21T11:28:05.254Z,50.62
2019-01-21T11:29:05.218Z,56.25
2019-01-21T11:30:05.203Z,56.25
2019-01-21T11:31:05.196Z,50.62
2019-01-21T11:32:05.184Z,56.25
2019-01-21T11:33:05.200Z,50.62
2019-01-21T11:34:05.161Z,50.62
2019-01-21T11:35:05.146Z,50.62
2019-01-21T11:36:05.148Z,45.00
2019-01-21T11:37:05.124Z,50.62
2019-01-21T11:38:05.137Z,45.00
2019-01-21T11:39:05.134Z,50.62
2019-01-21T11:40:05.095Z,45.00
2019-01-21T11:41:05.077Z,50.62
2019-01-21T11:42:05.073Z,56.25
2019-01-21T11:43:05.086Z,50.62
2019-01-21T11:44:05.055Z,45.00
2019-01-21T11:45:05.045Z,45.00
2019-01-21T11:46:05.024Z,45.00
2019-01-21T11:47:05.036Z,39.38
2019-01-21T11:48:05.016Z,33.75
2019-01-21T11:49:05.005Z,28.12
2019-01-21T11:50:10.495Z,28.12
2019-01-21T11:51:05.975Z,28.12
2019-01-21T11:52:04.959Z,28.12
2019-01-21T11:53:04.976Z,28.12
2019-01-21T11:54:04.946Z,33.75
2019-01-21T11:55:04.940Z,33.75
2019-01-21T11:56:04.918Z,33.75
2019-01-21T11:57:04.906Z,33.75
2019-01-21T11:58:04.898Z,33.75
2019-01-21T11:59:04.921Z,33.75
2019-01-21T12:00:04.885Z,33.75
2019-01-21T12:01:04.889Z,39.38
2019-01-21T12:02:04.854Z,39.38
2019-01-21T12:03:04.843Z,39.38
2019-01-21T12:04:04.861Z,39.38
2019-01-21T12:05:04.825Z,39.38
2019-01-21T12:06:04.814Z,39.38
2019-01-21T12:07:04.799Z,39.38
2019-01-21T12:08:04.782Z,39.38
2019-01-21T12:09:04.801Z,39.38
2019-01-21T12:10:04.763Z,39.38
2019-01-21T12:11:06.004Z,33.75
2019-01-21T12:12:04.742Z,39.38
2019-01-21T12:13:04.727Z,33.75
2019-01-21T12:14:04.740Z,33.75
2019-01-21T12:15:04.728Z,33.75
2019-01-21T12:16:04.691Z,39.38
2019-01-21T12:17:04.688Z,33.75
2019-01-21T12:18:04.679Z,33.75
2019-01-21T12:19:04.680Z,39.38
2019-01-21T12:20:04.669Z,33.75
2019-01-21T12:21:04.647Z,33.75
2019-01-21T12:22:04.633Z,33.75
2019-01-21T12:23:04.613Z,33.75
2019-01-21T12:24:04.647Z,33.75
2019-01-21T12:25:04.610Z,33.75
2019-01-21T12:26:04.588Z,33.75
2019-01-21T12:27:04.569Z,33.75
2019-01-21T12:28:04.575Z,33.75
2019-01-21T12:29:04.571Z,33.75
2019-01-21T12:30:04.544Z,33.75
2019-01-21T12:31:04.544Z,33.75
2019-01-21T12:32:04.516Z,33.75
2019-01-21T12:33:04.511Z,33.75
2019-01-21T12:34:04.536Z,33.75
2019-01-21T12:35:04.519Z,33.75
2019-01-21T12:36:04.478Z,33.75
2019-01-21T12:37:04.474Z,28.12
2019-01-21T12:38:04.465Z,33.75
2019-01-21T12:39:04.455Z,33.75
2019-01-21T12:40:04.461Z,28.12
2019-01-21T12:41:04.421Z,33.75
2019-01-21T12:42:04.434Z,33.75
2019-01-21T12:43:04.403Z,33.75
2019-01-21T12:44:04.412Z,33.75
2019-01-21T12:45:04.413Z,33.75
2019-01-21T12:46:04.365Z,33.75
2019-01-21T12:47:04.362Z,39.38
2019-01-21T12:48:04.349Z,33.75
2019-01-21T12:49:04.332Z,33.75
2019-01-21T12:50:04.362Z,33.75
2019-01-21T12:51:04.318Z,33.75
2019-01-21T12:52:04.321Z,33.75
2019-01-21T12:53:04.293Z,33.75
2019-01-21T12:54:04.273Z,33.75
2019-01-21T12:55:04.308Z,33.75
2019-01-21T12:56:04.262Z,33.75
2019-01-21T12:57:04.258Z,33.75
2019-01-21T12:58:04.228Z,33.75
2019-01-21T12:59:04.218Z,33.75
2019-01-21T13:00:04.231Z,33.75
2019-01-21T13:01:04.196Z,33.75
2019-01-21T13:02:04.201Z,33.75
2019-01-21T13:03:04.181Z,33.75
2019-01-21T13:04:04.161Z,33.75
2019-01-21T13:05:04.294Z,33.75
2019-01-21T13:06:04.156Z,33.75
2019-01-21T13:07:04.134Z,33.75
2019-01-21T13:08:04.150Z,33.75